PWSweather.com
Personal Weather Stations
Station Observations
WESTON01
WestonSuperMareGB BS22 8RT

WestonSuperMareGB BS22 8RT

Lat: 51.351508, Lon: -2.933373

Elevation: 15

Station Type: Fine Offset WH1080

http://www.westonweather.co.uk

High Low Average
Temperature 47.2°F8.4°F 38.9°F3.8°F 43.1°F6.2°F
Dew Point 45.3°F7.4°F 32.4°F0.2°F 39.5°F4.2°F
Winds 23.2 mph WNW37.3 mph WNW Calm Calm 9.4 mph 15.1 mph
Wind Gusts 36.6 mph58.9 mph -- 14.7 mph23.7 mph
Humidity 93% 75% 87%
Pressure 29.62 in1003.00 in 29.30 in992.20 in -
Precipitation 4.36 in110.70 in - -
Hour Temp Dew Point Humidity Winds Wind Gusts Pressure Precip Precip Rate Daily Precip Total
12:00 AM 45.4°F7.4°C 43.2°F6.2°C 92% 7.6 mph SSW12.2 kmh SSW 14.3 mph23.0 kmh 29.59 in1002.0 mb 0.00 in0.0 mm 0.00 in0.0 mm 0.00 in0.0 mm
12:05 AM 45.4°F7.4°C 43.2°F6.2°C 92% 7.9 mph WSW12.7 kmh WSW 14.3 mph23.0 kmh 29.59 in1002.0 mb 0.00 in0.0 mm 0.00 in0.0 mm 0.00 in0.0 mm
12:10 AM 45.4°F7.4°C 43.2°F6.2°C 92% 10.1 mph WSW16.3 kmh WSW 17.9 mph28.8 kmh 29.59 in1002.0 mb 0.00 in0.0 mm 0.00 in0.0 mm 0.00 in0.0 mm
12:15 AM 45.6°F7.6°C 43.4°F6.3°C 92% 11.9 mph WSW19.2 kmh WSW 17.9 mph28.8 kmh 29.59 in1002.0 mb 0.00 in0.0 mm 0.00 in0.0 mm 0.00 in0.0 mm
12:20 AM 45.6°F7.6°C 43.4°F6.3°C 92% 12.6 mph WSW20.3 kmh WSW 20.2 mph32.5 kmh 29.59 in1002.0 mb 0.00 in0.0 mm 0.00 in0.0 mm 0.00 in0.0 mm
12:25 AM 45.8°F7.7°C 43.6°F6.4°C 92% 11.9 mph WSW19.2 kmh WSW 20.2 mph32.5 kmh 29.59 in1002.0 mb 0.00 in0.0 mm 0.00 in0.0 mm 0.00 in0.0 mm
12:30 AM 45.8°F7.7°C 43.6°F6.4°C 92% 13.7 mph WSW22.0 kmh WSW 22.0 mph35.4 kmh 29.59 in1002.0 mb 0.00 in0.0 mm 0.00 in0.0 mm 0.00 in0.0 mm
12:35 AM 46.0°F7.8°C 43.8°F6.6°C 92% 14.0 mph W22.5 kmh W 22.0 mph35.4 kmh 29.59 in1002.0 mb 0.00 in0.0 mm 0.00 in0.0 mm 0.00 in0.0 mm
12:40 AM 46.0°F7.8°C 43.8°F6.6°C 92% 14.2 mph W22.9 kmh W 22.0 mph35.4 kmh 29.59 in1002.0 mb 0.00 in0.0 mm 0.00 in0.0 mm 0.00 in0.0 mm
12:45 AM 46.0°F7.8°C 43.8°F6.6°C 92% 15.6 mph W25.1 kmh W 19.6 mph31.5 kmh 29.59 in1002.0 mb 0.00 in0.0 mm 0.00 in0.0 mm 0.00 in0.0 mm
12:50 AM 45.8°F7.7°C 43.3°F6.3°C 91% 13.0 mph W20.9 kmh W 17.9 mph28.8 kmh 29.59 in1002.0 mb 0.00 in0.0 mm 0.00 in0.0 mm 0.00 in0.0 mm
12:55 AM 45.6°F7.6°C 43.1°F6.2°C 91% 11.9 mph W19.2 kmh W 17.6 mph28.3 kmh 29.59 in1002.0 mb 0.00 in0.0 mm 0.00 in0.0 mm 0.00 in0.0 mm
01:00 AM 45.4°F7.4°C 42.9°F6.1°C 91% 12.0 mph W19.3 kmh W 17.6 mph28.3 kmh 29.62 in1003.0 mb 0.00 in0.0 mm 0.00 in0.0 mm 0.00 in0.0 mm
01:05 AM 45.2°F7.3°C 42.8°F6.0°C 91% 11.2 mph W18.0 kmh W 13.7 mph22.0 kmh 29.62 in1003.0 mb 0.00 in0.0 mm 0.00 in0.0 mm 0.00 in0.0 mm
01:10 AM 45.2°F7.3°C 42.8°F6.0°C 91% 11.2 mph WNW18.0 kmh WNW 14.3 mph23.0 kmh 29.62 in1003.0 mb 0.00 in0.0 mm 0.00 in0.0 mm 0.00 in0.0 mm
01:15 AM 45.0°F7.2°C 42.6°F5.9°C 91% 10.9 mph WNW17.5 kmh WNW 14.3 mph23.0 kmh 29.62 in1003.0 mb 0.00 in0.0 mm 0.00 in0.0 mm 0.00 in0.0 mm
01:20 AM 45.0°F7.2°C 42.6°F5.9°C 91% 10.6 mph W17.1 kmh W 14.3 mph23.0 kmh 29.62 in1003.0 mb 0.00 in0.0 mm 0.00 in0.0 mm 0.00 in0.0 mm
01:25 AM 44.9°F7.2°C 42.4°F5.8°C 91% 9.5 mph W15.3 kmh W 14.0 mph22.5 kmh 29.62 in1003.0 mb 0.00 in0.0 mm 0.00 in0.0 mm 0.00 in0.0 mm
01:30 AM 44.7°F7.1°C 42.2°F5.7°C 91% 7.1 mph W11.4 kmh W 11.3 mph18.2 kmh 29.62 in1003.0 mb 0.00 in0.0 mm 0.00 in0.0 mm 0.00 in0.0 mm
01:35 AM 44.5°F6.9°C 42.0°F5.6°C 91% 7.1 mph W11.4 kmh W 11.3 mph18.2 kmh 29.62 in1003.0 mb 0.00 in0.0 mm 0.00 in0.0 mm 0.00 in0.0 mm
01:40 AM 44.5°F6.9°C 42.0°F5.6°C 91% 8.6 mph W13.8 kmh W 13.4 mph21.6 kmh 29.62 in1003.0 mb 0.00 in0.0 mm 0.00 in0.0 mm 0.00 in0.0 mm
01:45 AM 44.3°F6.8°C 41.9°F5.5°C 91% 9.3 mph W15.0 kmh W 14.3 mph23.0 kmh 29.62 in1003.0 mb 0.00 in0.0 mm 0.00 in0.0 mm 0.00 in0.0 mm
01:50 AM 44.3°F6.8°C 41.9°F5.5°C 91% 8.6 mph W13.8 kmh W 16.7 mph26.9 kmh 29.62 in1003.0 mb 0.00 in0.0 mm 0.00 in0.0 mm 0.00 in0.0 mm
01:55 AM 44.3°F6.8°C 41.9°F5.5°C 91% 7.3 mph W11.7 kmh W 16.7 mph26.9 kmh 29.62 in1003.0 mb 0.00 in0.0 mm 0.00 in0.0 mm 0.00 in0.0 mm
02:00 AM 44.3°F6.8°C 41.9°F5.5°C 91% 7.1 mph W11.4 kmh W 13.1 mph21.1 kmh 29.62 in1003.0 mb 0.00 in0.0 mm 0.00 in0.0 mm 0.00 in0.0 mm
02:05 AM 44.2°F6.8°C 41.7°F5.4°C 91% 6.4 mph W10.3 kmh W 13.1 mph21.1 kmh 29.62 in1003.0 mb 0.00 in0.0 mm 0.00 in0.0 mm 0.00 in0.0 mm
02:10 AM 44.2°F6.8°C 41.4°F5.2°C 90% 6.6 mph WNW10.6 kmh WNW 13.1 mph21.1 kmh 29.62 in1003.0 mb 0.00 in0.0 mm 0.00 in0.0 mm 0.00 in0.0 mm
02:15 AM 44.2°F6.8°C 41.4°F5.2°C 90% 6.3 mph W10.1 kmh W 8.3 mph13.4 kmh 29.62 in1003.0 mb 0.00 in0.0 mm 0.00 in0.0 mm 0.00 in0.0 mm
02:20 AM 44.0°F6.7°C 41.2°F5.1°C 90% 6.5 mph WSW10.5 kmh WSW 9.2 mph14.8 kmh 29.62 in1003.0 mb 0.00 in0.0 mm 0.00 in0.0 mm 0.00 in0.0 mm
02:25 AM 44.0°F6.7°C 41.2°F5.1°C 90% 8.3 mph W13.4 kmh W 13.4 mph21.6 kmh 29.62 in1003.0 mb 0.00 in0.0 mm 0.00 in0.0 mm 0.00 in0.0 mm
02:30 AM 44.0°F6.7°C 41.2°F5.1°C 90% 8.3 mph W13.4 kmh W 13.4 mph21.6 kmh 29.62 in1003.0 mb 0.00 in0.0 mm 0.00 in0.0 mm 0.00 in0.0 mm
02:35 AM 44.0°F6.7°C 41.2°F5.1°C 90% 6.5 mph W10.5 kmh W 10.7 mph17.2 kmh 29.62 in1003.0 mb 0.00 in0.0 mm 0.00 in0.0 mm 0.00 in0.0 mm
02:40 AM 44.0°F6.7°C 41.2°F5.1°C 90% 6.7 mph W10.8 kmh W 11.3 mph18.2 kmh 29.62 in1003.0 mb 0.00 in0.0 mm 0.00 in0.0 mm 0.00 in0.0 mm
02:45 AM 44.0°F6.7°C 41.2°F5.1°C 90% 7.3 mph WNW11.7 kmh WNW 11.3 mph18.2 kmh 29.62 in1003.0 mb 0.00 in0.0 mm 0.00 in0.0 mm 0.00 in0.0 mm
02:50 AM 44.0°F6.7°C 41.2°F5.1°C 90% 8.0 mph WNW12.9 kmh WNW 11.6 mph18.7 kmh 29.62 in1003.0 mb 0.00 in0.0 mm 0.00 in0.0 mm 0.00 in0.0 mm
02:55 AM 44.0°F6.7°C 41.2°F5.1°C 90% 8.7 mph WNW14.0 kmh WNW 11.6 mph18.7 kmh 29.62 in1003.0 mb 0.00 in0.0 mm 0.00 in0.0 mm 0.00 in0.0 mm
03:00 AM 44.0°F6.7°C 41.2°F5.1°C 90% 7.5 mph NW12.1 kmh NW 11.6 mph18.7 kmh 29.62 in1003.0 mb 0.00 in0.0 mm 0.00 in0.0 mm 0.00 in0.0 mm
03:05 AM 43.8°F6.6°C 41.0°F5.0°C 90% 7.2 mph WNW11.6 kmh WNW 11.6 mph18.7 kmh 29.62 in1003.0 mb 0.00 in0.0 mm 0.00 in0.0 mm 0.00 in0.0 mm
03:10 AM 43.8°F6.6°C 41.0°F5.0°C 90% 8.0 mph WNW12.9 kmh WNW 13.4 mph21.6 kmh 29.62 in1003.0 mb 0.00 in0.0 mm 0.00 in0.0 mm 0.00 in0.0 mm
03:15 AM 43.6°F6.4°C 40.9°F4.9°C 90% 7.6 mph WNW12.2 kmh WNW 13.4 mph21.6 kmh 29.62 in1003.0 mb 0.00 in0.0 mm 0.00 in0.0 mm 0.00 in0.0 mm
03:20 AM 43.6°F6.4°C 40.9°F4.9°C 90% 5.5 mph WNW8.9 kmh WNW 8.3 mph13.4 kmh 29.62 in1003.0 mb 0.00 in0.0 mm 0.00 in0.0 mm 0.00 in0.0 mm
03:25 AM 43.4°F6.3°C 40.7°F4.8°C 90% 4.5 mph W7.2 kmh W 8.3 mph13.4 kmh 29.62 in1003.0 mb 0.00 in0.0 mm 0.00 in0.0 mm 0.00 in0.0 mm
03:30 AM 43.4°F6.3°C 40.7°F4.8°C 90% 3.9 mph WNW6.3 kmh WNW 5.4 mph8.7 kmh 29.62 in1003.0 mb 0.00 in0.0 mm 0.00 in0.0 mm 0.00 in0.0 mm
03:35 AM 43.4°F6.3°C 40.7°F4.8°C 90% 4.3 mph WNW6.9 kmh WNW 6.5 mph10.5 kmh 29.62 in1003.0 mb 0.00 in0.0 mm 0.00 in0.0 mm 0.00 in0.0 mm
03:40 AM 43.4°F6.3°C 40.7°F4.8°C 90% 4.2 mph WNW6.8 kmh WNW 6.5 mph10.5 kmh 29.62 in1003.0 mb 0.00 in0.0 mm 0.00 in0.0 mm 0.00 in0.0 mm
03:45 AM 43.4°F6.3°C 40.7°F4.8°C 90% 3.8 mph W6.1 kmh W 7.4 mph11.9 kmh 29.62 in1003.0 mb 0.00 in0.0 mm 0.00 in0.0 mm 0.00 in0.0 mm
03:50 AM 43.4°F6.3°C 40.7°F4.8°C 90% 4.4 mph W7.1 kmh W 7.4 mph11.9 kmh 29.62 in1003.0 mb 0.00 in0.0 mm 0.00 in0.0 mm 0.00 in0.0 mm
03:55 AM 43.4°F6.3°C 40.7°F4.8°C 90% 4.7 mph WNW7.6 kmh WNW 7.1 mph11.4 kmh 29.62 in1003.0 mb 0.00 in0.0 mm 0.00 in0.0 mm 0.00 in0.0 mm
04:00 AM 43.4°F6.3°C 40.7°F4.8°C 90% 5.3 mph W8.5 kmh W 7.4 mph11.9 kmh 29.59 in1002.0 mb 0.00 in0.0 mm 0.00 in0.0 mm 0.00 in0.0 mm
04:05 AM 43.4°F6.3°C 40.7°F4.8°C 90% 4.3 mph W6.9 kmh W 7.4 mph11.9 kmh 29.59 in1002.0 mb 0.00 in0.0 mm 0.00 in0.0 mm 0.00 in0.0 mm
04:10 AM 43.4°F6.3°C 40.7°F4.8°C 90% 3.4 mph W5.5 kmh W 5.1 mph8.2 kmh 29.59 in1002.0 mb 0.00 in0.0 mm 0.00 in0.0 mm 0.00 in0.0 mm
04:15 AM 43.4°F6.3°C 40.7°F4.8°C 90% 3.6 mph W5.8 kmh W 5.1 mph8.2 kmh 29.59 in1002.0 mb 0.00 in0.0 mm 0.00 in0.0 mm 0.00 in0.0 mm
04:20 AM 43.4°F6.3°C 40.7°F4.8°C 90% 2.7 mph W4.3 kmh W 4.8 mph7.7 kmh 29.59 in1002.0 mb 0.00 in0.0 mm 0.00 in0.0 mm 0.00 in0.0 mm
04:25 AM 43.4°F6.3°C 40.7°F4.8°C 90% 2.2 mph WSW3.5 kmh WSW 3.9 mph6.3 kmh 29.59 in1002.0 mb 0.00 in0.0 mm 0.00 in0.0 mm 0.00 in0.0 mm
04:30 AM 43.3°F6.3°C 40.5°F4.7°C 90% 1.4 mph SW2.3 kmh SW 3.3 mph5.3 kmh 29.59 in1002.0 mb 0.00 in0.0 mm 0.00 in0.0 mm 0.00 in0.0 mm
04:35 AM 43.1°F6.2°C 40.3°F4.6°C 90% 0.6 mph SW1.0 kmh SW 3.3 mph5.3 kmh 29.59 in1002.0 mb 0.00 in0.0 mm 0.00 in0.0 mm 0.00 in0.0 mm
04:40 AM 42.9°F6.1°C 40.2°F4.6°C 90% 0.3 mph SSW0.5 kmh SSW 1.2 mph1.9 kmh 29.59 in1002.0 mb 0.00 in0.0 mm 0.00 in0.0 mm 0.00 in0.0 mm
04:45 AM 42.9°F6.1°C 40.2°F4.6°C 90% 0.5 mph S0.8 kmh S 1.5 mph2.4 kmh 29.59 in1002.0 mb 0.00 in0.0 mm 0.00 in0.0 mm 0.00 in0.0 mm
04:50 AM 42.9°F6.1°C 40.2°F4.6°C 90% 0.7 mph S1.1 kmh S 1.8 mph2.9 kmh 29.59 in1002.0 mb 0.00 in0.0 mm 0.00 in0.0 mm 0.00 in0.0 mm
04:55 AM 42.7°F5.9°C 40.0°F4.4°C 90% 0.4 mph S0.6 kmh S 1.8 mph2.9 kmh 29.59 in1002.0 mb 0.00 in0.0 mm 0.00 in0.0 mm 0.00 in0.0 mm
05:00 AM 42.5°F5.8°C 39.8°F4.3°C 90% Calm Calm -- 29.59 in1002.0 mb 0.00 in0.0 mm 0.00 in0.0 mm 0.00 in0.0 mm
05:05 AM 42.3°F5.7°C 39.6°F4.2°C 90% 0.4 mph SW0.6 kmh SW 1.8 mph2.9 kmh 29.59 in1002.0 mb 0.00 in0.0 mm 0.00 in0.0 mm 0.00 in0.0 mm
05:10 AM 42.3°F5.7°C 39.6°F4.2°C 90% 0.7 mph SW1.1 kmh SW 1.8 mph2.9 kmh 29.59 in1002.0 mb 0.00 in0.0 mm 0.00 in0.0 mm 0.00 in0.0 mm
05:15 AM 42.3°F5.7°C 39.6°F4.2°C 90% 0.6 mph SW1.0 kmh SW 2.7 mph4.3 kmh 29.59 in1002.0 mb 0.00 in0.0 mm 0.00 in0.0 mm 0.00 in0.0 mm
05:20 AM 42.3°F5.7°C 39.6°F4.2°C 90% 0.5 mph SW0.8 kmh SW 2.7 mph4.3 kmh 29.59 in1002.0 mb 0.00 in0.0 mm 0.00 in0.0 mm 0.00 in0.0 mm
05:25 AM 42.3°F5.7°C 39.6°F4.2°C 90% 0.9 mph SSW1.4 kmh SSW 3.3 mph5.3 kmh 29.59 in1002.0 mb 0.00 in0.0 mm 0.00 in0.0 mm 0.00 in0.0 mm
05:30 AM 42.3°F5.7°C 39.9°F4.4°C 91% 1.0 mph SW1.6 kmh SW 3.3 mph5.3 kmh 29.59 in1002.0 mb 0.00 in0.0 mm 0.00 in0.0 mm 0.00 in0.0 mm
05:35 AM 42.7°F5.9°C 40.3°F4.6°C 91% 2.1 mph SW3.4 kmh SW 3.6 mph5.8 kmh 29.59 in1002.0 mb 0.00 in0.0 mm 0.00 in0.0 mm 0.00 in0.0 mm
05:40 AM 42.7°F5.9°C 40.3°F4.6°C 91% 3.3 mph WSW5.3 kmh WSW 5.1 mph8.2 kmh 29.59 in1002.0 mb 0.00 in0.0 mm 0.00 in0.0 mm 0.00 in0.0 mm
05:45 AM 43.1°F6.2°C 40.6°F4.8°C 91% 4.2 mph W6.8 kmh W 5.7 mph9.2 kmh 29.59 in1002.0 mb 0.00 in0.0 mm 0.00 in0.0 mm 0.00 in0.0 mm
05:50 AM 43.1°F6.2°C 40.9°F4.9°C 92% 4.5 mph W7.2 kmh W 6.2 mph10.0 kmh 29.59 in1002.0 mb 0.00 in0.0 mm 0.00 in0.0 mm 0.00 in0.0 mm
05:55 AM 43.3°F6.3°C 41.1°F5.1°C 92% 4.6 mph W7.4 kmh W 6.2 mph10.0 kmh 29.59 in1002.0 mb 0.00 in0.0 mm 0.00 in0.0 mm 0.00 in0.0 mm
06:00 AM 43.3°F6.3°C 41.1°F5.1°C 92% 4.1 mph W6.6 kmh W 5.4 mph8.7 kmh 29.59 in1002.0 mb 0.00 in0.0 mm 0.00 in0.0 mm 0.00 in0.0 mm
06:05 AM 43.4°F6.3°C 41.0°F5.0°C 91% 3.4 mph WNW5.5 kmh WNW 4.8 mph7.7 kmh 29.59 in1002.0 mb 0.00 in0.0 mm 0.00 in0.0 mm 0.00 in0.0 mm
06:10 AM 43.6°F6.4°C 41.2°F5.1°C 91% 3.5 mph NW5.6 kmh NW 4.8 mph7.7 kmh 29.59 in1002.0 mb 0.00 in0.0 mm 0.00 in0.0 mm 0.00 in0.0 mm
06:15 AM 44.0°F6.7°C 41.5°F5.3°C 91% 4.7 mph W7.6 kmh W 7.1 mph11.4 kmh 29.59 in1002.0 mb 0.00 in0.0 mm 0.00 in0.0 mm 0.00 in0.0 mm
06:20 AM 44.0°F6.7°C 41.5°F5.3°C 91% 6.3 mph W10.1 kmh W 10.7 mph17.2 kmh 29.59 in1002.0 mb 0.00 in0.0 mm 0.00 in0.0 mm 0.00 in0.0 mm
06:25 AM 44.0°F6.7°C 41.5°F5.3°C 91% 6.5 mph WSW10.5 kmh WSW 10.7 mph17.2 kmh 29.59 in1002.0 mb 0.00 in0.0 mm 0.00 in0.0 mm 0.00 in0.0 mm
06:30 AM 44.0°F6.7°C 41.5°F5.3°C 91% 5.7 mph WSW9.2 kmh WSW 8.3 mph13.4 kmh 29.59 in1002.0 mb 0.00 in0.0 mm 0.00 in0.0 mm 0.00 in0.0 mm
06:35 AM 44.2°F6.8°C 41.7°F5.4°C 91% 4.1 mph SW6.6 kmh SW 8.3 mph13.4 kmh 29.59 in1002.0 mb 0.00 in0.0 mm 0.00 in0.0 mm 0.00 in0.0 mm
06:40 AM 44.2°F6.8°C 41.7°F5.4°C 91% 2.1 mph SW3.4 kmh SW 4.5 mph7.2 kmh 29.59 in1002.0 mb 0.00 in0.0 mm 0.00 in0.0 mm 0.00 in0.0 mm
06:45 AM 44.2°F6.8°C 41.7°F5.4°C 91% 2.3 mph WSW3.7 kmh WSW 5.1 mph8.2 kmh 29.59 in1002.0 mb 0.04 in1.0 mm 0.48 in12.2 mm 0.04 in1.0 mm
06:50 AM 44.2°F6.8°C 41.7°F5.4°C 91% 3.5 mph W5.6 kmh W 5.1 mph8.2 kmh 29.59 in1002.0 mb 0.04 in1.0 mm 0.00 in0.0 mm 0.04 in1.0 mm
06:55 AM 44.2°F6.8°C 41.7°F5.4°C 91% 2.5 mph W4.0 kmh W 4.2 mph6.8 kmh 29.59 in1002.0 mb 0.04 in1.0 mm 0.00 in0.0 mm 0.04 in1.0 mm
07:00 AM 44.2°F6.8°C 41.7°F5.4°C 91% 0.9 mph W1.4 kmh W 2.1 mph3.4 kmh 29.59 in1002.0 mb 0.04 in1.0 mm 0.00 in0.0 mm 0.04 in1.0 mm
07:05 AM 44.0°F6.7°C 41.5°F5.3°C 91% 0.1 mph SW0.2 kmh SW 1.8 mph2.9 kmh 29.59 in1002.0 mb 0.04 in1.0 mm 0.00 in0.0 mm 0.04 in1.0 mm
07:10 AM 44.0°F6.7°C 41.5°F5.3°C 91% 0.7 mph SSW1.1 kmh SSW 3.3 mph5.3 kmh 29.59 in1002.0 mb 0.04 in1.0 mm 0.00 in0.0 mm 0.04 in1.0 mm
07:15 AM 44.0°F6.7°C 41.5°F5.3°C 91% 2.5 mph SW4.0 kmh SW 4.8 mph7.7 kmh 29.59 in1002.0 mb 0.04 in1.0 mm 0.00 in0.0 mm 0.04 in1.0 mm
07:20 AM 44.0°F6.7°C 41.5°F5.3°C 91% 3.5 mph SW5.6 kmh SW 4.8 mph7.7 kmh 29.59 in1002.0 mb 0.04 in1.0 mm 0.00 in0.0 mm 0.04 in1.0 mm
07:25 AM 44.0°F6.7°C 41.8°F5.4°C 92% 3.7 mph WSW6.0 kmh WSW 5.4 mph8.7 kmh 29.59 in1002.0 mb 0.04 in1.0 mm 0.00 in0.0 mm 0.04 in1.0 mm
07:30 AM 44.0°F6.7°C 41.8°F5.4°C 92% 3.5 mph WSW5.6 kmh WSW 5.4 mph8.7 kmh 29.59 in1002.0 mb 0.04 in1.0 mm 0.00 in0.0 mm 0.04 in1.0 mm
07:35 AM 44.0°F6.7°C 41.8°F5.4°C 92% 3.2 mph WSW5.1 kmh WSW 5.4 mph8.7 kmh 29.59 in1002.0 mb 0.04 in1.0 mm 0.00 in0.0 mm 0.04 in1.0 mm
07:40 AM 44.0°F6.7°C 41.8°F5.4°C 92% 4.6 mph WSW7.4 kmh WSW 6.5 mph10.5 kmh 29.59 in1002.0 mb 0.04 in1.0 mm 0.00 in0.0 mm 0.04 in1.0 mm
07:45 AM 44.0°F6.7°C 41.8°F5.4°C 92% 5.0 mph WSW8.0 kmh WSW 6.5 mph10.5 kmh 29.56 in1001.0 mb 0.00 in0.0 mm 0.00 in0.0 mm 0.04 in1.0 mm
07:50 AM 43.8°F6.6°C 41.6°F5.3°C 92% 4.3 mph WSW6.9 kmh WSW 5.7 mph9.2 kmh 29.56 in1001.0 mb 0.00 in0.0 mm 0.00 in0.0 mm 0.04 in1.0 mm
07:55 AM 43.8°F6.6°C 41.6°F5.3°C 92% 3.9 mph SW6.3 kmh SW 5.7 mph9.2 kmh 29.56 in1001.0 mb 0.00 in0.0 mm 0.00 in0.0 mm 0.04 in1.0 mm
08:00 AM 43.8°F6.6°C 41.6°F5.3°C 92% 4.7 mph WSW7.6 kmh WSW 8.3 mph13.4 kmh 29.56 in1001.0 mb 0.00 in0.0 mm 0.00 in0.0 mm 0.04 in1.0 mm
08:05 AM 43.6°F6.4°C 41.4°F5.2°C 92% 4.6 mph WSW7.4 kmh WSW 8.3 mph13.4 kmh 29.56 in1001.0 mb 0.00 in0.0 mm 0.00 in0.0 mm 0.04 in1.0 mm
08:10 AM 43.6°F6.4°C 41.4°F5.2°C 92% 3.1 mph WSW5.0 kmh WSW 4.8 mph7.7 kmh 29.56 in1001.0 mb 0.00 in0.0 mm 0.00 in0.0 mm 0.04 in1.0 mm
08:15 AM 43.6°F6.4°C 41.4°F5.2°C 92% 2.9 mph WSW4.7 kmh WSW 6.5 mph10.5 kmh 29.53 in1000.0 mb 0.00 in0.0 mm 0.00 in0.0 mm 0.04 in1.0 mm
08:20 AM 43.6°F6.4°C 41.4°F5.2°C 92% 3.4 mph SSW5.5 kmh SSW 6.5 mph10.5 kmh 29.53 in1000.0 mb 0.00 in0.0 mm 0.00 in0.0 mm 0.04 in1.0 mm
08:25 AM 43.6°F6.4°C 41.4°F5.2°C 92% 3.9 mph S6.3 kmh S 6.2 mph10.0 kmh 29.53 in1000.0 mb 0.00 in0.0 mm 0.00 in0.0 mm 0.04 in1.0 mm
08:30 AM 43.6°F6.4°C 41.4°F5.2°C 92% 4.6 mph SW7.4 kmh SW 7.4 mph11.9 kmh 29.53 in1000.0 mb 0.00 in0.0 mm 0.00 in0.0 mm 0.04 in1.0 mm
08:35 AM 43.4°F6.3°C 41.3°F5.2°C 92% 5.1 mph SW8.2 kmh SW 7.4 mph11.9 kmh 29.53 in1000.0 mb 0.00 in0.0 mm 0.00 in0.0 mm 0.04 in1.0 mm
08:40 AM 43.4°F6.3°C 41.3°F5.2°C 92% 5.6 mph SW9.0 kmh SW 7.7 mph12.4 kmh 29.53 in1000.0 mb 0.04 in1.0 mm 0.48 in12.2 mm 0.08 in2.0 mm
08:45 AM 43.4°F6.3°C 41.3°F5.2°C 92% 6.0 mph SW9.7 kmh SW 11.3 mph18.2 kmh 29.53 in1000.0 mb 0.04 in1.0 mm 0.00 in0.0 mm 0.08 in2.0 mm
08:50 AM 43.4°F6.3°C 41.3°F5.2°C 92% 5.9 mph SSW9.5 kmh SSW 11.3 mph18.2 kmh 29.53 in1000.0 mb 0.04 in1.0 mm 0.00 in0.0 mm 0.08 in2.0 mm
08:55 AM 43.4°F6.3°C 41.3°F5.2°C 92% 5.9 mph SSW9.5 kmh SSW 8.3 mph13.4 kmh 29.53 in1000.0 mb 0.04 in1.0 mm 0.00 in0.0 mm 0.08 in2.0 mm
09:00 AM 43.4°F6.3°C 41.3°F5.2°C 92% 6.5 mph SW10.5 kmh SW 8.3 mph13.4 kmh 29.53 in1000.0 mb 0.04 in1.0 mm 0.00 in0.0 mm 0.08 in2.0 mm
09:05 AM 43.4°F6.3°C 41.3°F5.2°C 92% 7.1 mph SSW11.4 kmh SSW 9.5 mph15.3 kmh 29.53 in1000.0 mb 0.04 in1.0 mm 0.00 in0.0 mm 0.08 in2.0 mm
09:10 AM 43.6°F6.4°C 41.4°F5.2°C 92% 6.8 mph SSW10.9 kmh SSW 9.5 mph15.3 kmh 29.53 in1000.0 mb 0.04 in1.0 mm 0.00 in0.0 mm 0.08 in2.0 mm
09:15 AM 43.6°F6.4°C 41.4°F5.2°C 92% 6.5 mph SW10.5 kmh SW 9.8 mph15.8 kmh 29.50 in999.0 mb 0.04 in1.0 mm 0.00 in0.0 mm 0.08 in2.0 mm
09:20 AM 43.6°F6.4°C 41.4°F5.2°C 92% 7.2 mph SW11.6 kmh SW 10.1 mph16.3 kmh 29.50 in999.0 mb 0.04 in1.0 mm 0.00 in0.0 mm 0.08 in2.0 mm
09:25 AM 43.8°F6.6°C 41.6°F5.3°C 92% 6.6 mph SSW10.6 kmh SSW 10.1 mph16.3 kmh 29.50 in999.0 mb 0.04 in1.0 mm 0.00 in0.0 mm 0.08 in2.0 mm
09:30 AM 43.8°F6.6°C 41.6°F5.3°C 92% 5.1 mph SW8.2 kmh SW 8.0 mph12.9 kmh 29.50 in999.0 mb 0.04 in1.0 mm 0.00 in0.0 mm 0.08 in2.0 mm
09:35 AM 44.0°F6.7°C 41.8°F5.4°C 92% 5.3 mph SW8.5 kmh SW 10.1 mph16.3 kmh 29.50 in999.0 mb 0.04 in1.0 mm 0.00 in0.0 mm 0.08 in2.0 mm
09:40 AM 44.2°F6.8°C 42.0°F5.6°C 92% 5.4 mph SW8.7 kmh SW 11.6 mph18.7 kmh 29.50 in999.0 mb 0.00 in0.0 mm 0.00 in0.0 mm 0.08 in2.0 mm
09:45 AM 44.2°F6.8°C 42.0°F5.6°C 92% 6.6 mph SSW10.6 kmh SSW 11.6 mph18.7 kmh 29.50 in999.0 mb 0.00 in0.0 mm 0.00 in0.0 mm 0.08 in2.0 mm
09:50 AM 44.3°F6.8°C 42.2°F5.7°C 92% 8.2 mph S13.2 kmh S 12.8 mph20.6 kmh 29.50 in999.0 mb 0.00 in0.0 mm 0.00 in0.0 mm 0.08 in2.0 mm
09:55 AM 44.3°F6.8°C 42.2°F5.7°C 92% 7.5 mph SSW12.1 kmh SSW 12.8 mph20.6 kmh 29.50 in999.0 mb 0.00 in0.0 mm 0.00 in0.0 mm 0.08 in2.0 mm
10:00 AM 44.5°F6.9°C 42.3°F5.7°C 92% 6.5 mph SSW10.5 kmh SSW 12.5 mph20.1 kmh 29.50 in999.0 mb 0.00 in0.0 mm 0.00 in0.0 mm 0.08 in2.0 mm
10:05 AM 44.7°F7.1°C 42.5°F5.8°C 92% 6.9 mph SSW11.1 kmh SSW 12.5 mph20.1 kmh 29.50 in999.0 mb 0.00 in0.0 mm 0.00 in0.0 mm 0.08 in2.0 mm
10:10 AM 44.7°F7.1°C 42.5°F5.8°C 92% 6.4 mph SW10.3 kmh SW 8.6 mph13.8 kmh 29.50 in999.0 mb 0.00 in0.0 mm 0.00 in0.0 mm 0.08 in2.0 mm
10:15 AM 44.7°F7.1°C 42.5°F5.8°C 92% 6.4 mph SW10.3 kmh SW 8.6 mph13.8 kmh 29.47 in998.0 mb 0.00 in0.0 mm 0.00 in0.0 mm 0.08 in2.0 mm
10:20 AM 44.9°F7.2°C 42.7°F5.9°C 92% 5.8 mph SW9.3 kmh SW 7.4 mph11.9 kmh 29.47 in998.0 mb 0.00 in0.0 mm 0.00 in0.0 mm 0.08 in2.0 mm
10:25 AM 44.9°F7.2°C 42.7°F5.9°C 92% 5.4 mph SW8.7 kmh SW 7.4 mph11.9 kmh 29.47 in998.0 mb 0.00 in0.0 mm 0.00 in0.0 mm 0.08 in2.0 mm
10:30 AM 44.9°F7.2°C 42.7°F5.9°C 92% 5.8 mph SSW9.3 kmh SSW 8.9 mph14.3 kmh 29.47 in998.0 mb 0.00 in0.0 mm 0.00 in0.0 mm 0.08 in2.0 mm
10:35 AM 44.9°F7.2°C 42.7°F5.9°C 92% 6.7 mph SW10.8 kmh SW 10.4 mph16.7 kmh 29.47 in998.0 mb 0.00 in0.0 mm 0.00 in0.0 mm 0.08 in2.0 mm
10:40 AM 44.9°F7.2°C 42.7°F5.9°C 92% 6.1 mph SW9.8 kmh SW 10.4 mph16.7 kmh 29.47 in998.0 mb 0.00 in0.0 mm 0.00 in0.0 mm 0.08 in2.0 mm
10:45 AM 45.0°F7.2°C 43.1°F6.2°C 93% 6.4 mph SW10.3 kmh SW 8.6 mph13.8 kmh 29.47 in998.0 mb 0.00 in0.0 mm 0.00 in0.0 mm 0.08 in2.0 mm
10:50 AM 45.0°F7.2°C 43.1°F6.2°C 93% 6.6 mph SW10.6 kmh SW 8.6 mph13.8 kmh 29.47 in998.0 mb 0.00 in0.0 mm 0.00 in0.0 mm 0.08 in2.0 mm
10:55 AM 45.2°F7.3°C 43.0°F6.1°C 92% 6.8 mph WSW10.9 kmh WSW 8.3 mph13.4 kmh 29.47 in998.0 mb 0.00 in0.0 mm 0.00 in0.0 mm 0.08 in2.0 mm
11:00 AM 45.2°F7.3°C 43.0°F6.1°C 92% 6.5 mph WSW10.5 kmh WSW 8.3 mph13.4 kmh 29.47 in998.0 mb 0.00 in0.0 mm 0.00 in0.0 mm 0.08 in2.0 mm
11:05 AM 45.2°F7.3°C 43.3°F6.3°C 93% 6.6 mph WSW10.6 kmh WSW 10.1 mph16.3 kmh 29.47 in998.0 mb 0.00 in0.0 mm 0.00 in0.0 mm 0.08 in2.0 mm
11:10 AM 45.4°F7.4°C 43.5°F6.4°C 93% 6.0 mph SW9.7 kmh SW 10.1 mph16.3 kmh 29.47 in998.0 mb 0.05 in1.3 mm 0.60 in15.2 mm 0.13 in3.3 mm
11:15 AM 45.4°F7.4°C 43.5°F6.4°C 93% 5.4 mph SW8.7 kmh SW 9.8 mph15.8 kmh 29.45 in997.3 mb 0.05 in1.3 mm 0.00 in0.0 mm 0.13 in3.3 mm
11:20 AM 45.4°F7.4°C 43.5°F6.4°C 93% 5.0 mph SW8.0 kmh SW 9.8 mph15.8 kmh 29.45 in997.3 mb 0.05 in1.3 mm 0.00 in0.0 mm 0.13 in3.3 mm
11:25 AM 45.4°F7.4°C 43.5°F6.4°C 93% 4.0 mph SW6.4 kmh SW 6.5 mph10.5 kmh 29.45 in997.3 mb 0.05 in1.3 mm 0.00 in0.0 mm 0.13 in3.3 mm
11:30 AM 45.4°F7.4°C 43.5°F6.4°C 93% 4.3 mph WSW6.9 kmh WSW 6.5 mph10.5 kmh 29.45 in997.3 mb 0.05 in1.3 mm 0.00 in0.0 mm 0.13 in3.3 mm
11:35 AM 45.4°F7.4°C 43.5°F6.4°C 93% 5.8 mph WSW9.3 kmh WSW 10.1 mph16.3 kmh 29.45 in997.3 mb 0.08 in2.0 mm 0.36 in9.1 mm 0.16 in4.1 mm
11:40 AM 45.6°F7.6°C 43.7°F6.5°C 93% 8.0 mph WSW12.9 kmh WSW 11.6 mph18.7 kmh 29.45 in997.3 mb 0.08 in2.0 mm 0.00 in0.0 mm 0.16 in4.1 mm
11:45 AM 45.6°F7.6°C 43.7°F6.5°C 93% 9.5 mph WSW15.3 kmh WSW 12.5 mph20.1 kmh 29.41 in995.9 mb 0.08 in2.0 mm 0.00 in0.0 mm 0.16 in4.1 mm
11:50 AM 45.8°F7.7°C 43.9°F6.6°C 93% 8.8 mph WSW14.2 kmh WSW 12.5 mph20.1 kmh 29.41 in995.9 mb 0.13 in3.3 mm 0.60 in15.2 mm 0.21 in5.3 mm
11:55 AM 45.8°F7.7°C 43.9°F6.6°C 93% 8.8 mph WSW14.2 kmh WSW 16.7 mph26.9 kmh 29.41 in995.9 mb 0.13 in3.3 mm 0.00 in0.0 mm 0.21 in5.3 mm
12:00 PM 46.0°F7.8°C 44.0°F6.7°C 93% 8.7 mph WSW14.0 kmh WSW 16.7 mph26.9 kmh 29.41 in995.9 mb 0.13 in3.3 mm 0.00 in0.0 mm 0.21 in5.3 mm
12:05 PM 46.0°F7.8°C 44.0°F6.7°C 93% 7.1 mph WSW11.4 kmh WSW 9.8 mph15.8 kmh 29.41 in995.9 mb 0.13 in3.3 mm 0.00 in0.0 mm 0.21 in5.3 mm
12:10 PM 46.0°F7.8°C 44.0°F6.7°C 93% 6.1 mph WSW9.8 kmh WSW 9.8 mph15.8 kmh 29.41 in995.9 mb 0.08 in2.0 mm 0.00 in0.0 mm 0.21 in5.3 mm
12:15 PM 46.1°F7.8°C 44.2°F6.8°C 93% 5.3 mph WSW8.5 kmh WSW 8.0 mph12.9 kmh 29.39 in995.3 mb 0.08 in2.0 mm 0.00 in0.0 mm 0.21 in5.3 mm
12:20 PM 46.1°F7.8°C 44.2°F6.8°C 93% 4.9 mph WSW7.9 kmh WSW 6.2 mph10.0 kmh 29.39 in995.3 mb 0.08 in2.0 mm 0.00 in0.0 mm 0.21 in5.3 mm
12:25 PM 46.1°F7.8°C 44.2°F6.8°C 93% 6.2 mph WSW10.0 kmh WSW 10.4 mph16.7 kmh 29.39 in995.3 mb 0.12 in3.0 mm 0.48 in12.2 mm 0.25 in6.4 mm
12:30 PM 46.1°F7.8°C 44.2°F6.8°C 93% 9.3 mph WSW15.0 kmh WSW 16.4 mph26.4 kmh 29.39 in995.3 mb 0.12 in3.0 mm 0.00 in0.0 mm 0.25 in6.4 mm
12:35 PM 46.1°F7.8°C 44.2°F6.8°C 93% 11.5 mph WSW18.5 kmh WSW 16.4 mph26.4 kmh 29.39 in995.3 mb 0.09 in2.3 mm 0.00 in0.0 mm 0.25 in6.4 mm
12:40 PM 46.3°F7.9°C 44.4°F6.9°C 93% 13.4 mph WSW21.6 kmh WSW 17.6 mph28.3 kmh 29.39 in995.3 mb 0.09 in2.3 mm 0.00 in0.0 mm 0.25 in6.4 mm
12:45 PM 46.5°F8.1°C 44.6°F7.0°C 93% 15.8 mph WSW25.4 kmh WSW 20.2 mph32.5 kmh 29.39 in995.3 mb 0.09 in2.3 mm 0.00 in0.0 mm 0.25 in6.4 mm
12:50 PM 46.8°F8.2°C 44.9°F7.2°C 93% 16.5 mph WSW26.6 kmh WSW 23.5 mph37.8 kmh 29.39 in995.3 mb 0.04 in1.0 mm 0.00 in0.0 mm 0.25 in6.4 mm
12:55 PM 46.8°F8.2°C 44.9°F7.2°C 93% 15.5 mph WSW24.9 kmh WSW 23.5 mph37.8 kmh 29.39 in995.3 mb 0.04 in1.0 mm 0.00 in0.0 mm 0.25 in6.4 mm
01:00 PM 47.2°F8.4°C 45.3°F7.4°C 93% 15.9 mph WSW25.6 kmh WSW 20.5 mph33.0 kmh 29.36 in994.2 mb 0.04 in1.0 mm 0.00 in0.0 mm 0.25 in6.4 mm
01:05 PM 47.2°F8.4°C 45.3°F7.4°C 93% 15.5 mph WSW24.9 kmh WSW 20.5 mph33.0 kmh 29.36 in994.2 mb 0.04 in1.0 mm 0.00 in0.0 mm 0.25 in6.4 mm
01:10 PM 47.2°F8.4°C 45.3°F7.4°C 93% 14.4 mph WSW23.2 kmh WSW 17.3 mph27.8 kmh 29.36 in994.2 mb 0.04 in1.0 mm 0.00 in0.0 mm 0.25 in6.4 mm
01:15 PM 47.2°F8.4°C 45.3°F7.4°C 93% 13.6 mph W21.9 kmh W 23.5 mph37.8 kmh 29.36 in994.2 mb 0.04 in1.0 mm 0.00 in0.0 mm 0.25 in6.4 mm
01:20 PM 47.2°F8.4°C 45.3°F7.4°C 93% 14.0 mph WNW22.5 kmh WNW 23.5 mph37.8 kmh 29.36 in994.2 mb 0.04 in1.0 mm 0.00 in0.0 mm 0.25 in6.4 mm
01:25 PM 46.8°F8.2°C 44.9°F7.2°C 93% 16.1 mph WNW25.9 kmh WNW 26.2 mph42.2 kmh 29.36 in994.2 mb 0.00 in0.0 mm 0.00 in0.0 mm 0.25 in6.4 mm
01:30 PM 46.7°F8.2°C 44.8°F7.1°C 93% 13.9 mph WNW22.4 kmh WNW 26.2 mph42.2 kmh 29.36 in994.2 mb 0.00 in0.0 mm 0.00 in0.0 mm 0.25 in6.4 mm
01:35 PM 46.5°F8.1°C 44.6°F7.0°C 93% 10.1 mph W16.3 kmh W 14.6 mph23.5 kmh 29.36 in994.2 mb 0.00 in0.0 mm 0.00 in0.0 mm 0.25 in6.4 mm
01:40 PM 46.5°F8.1°C 44.6°F7.0°C 93% 12.1 mph NW19.5 kmh NW 17.3 mph27.8 kmh 29.36 in994.2 mb 0.00 in0.0 mm 0.00 in0.0 mm 0.25 in6.4 mm
01:45 PM 46.5°F8.1°C 44.6°F7.0°C 93% 14.1 mph NW22.7 kmh NW 17.9 mph28.8 kmh 29.36 in994.2 mb 0.00 in0.0 mm 0.00 in0.0 mm 0.25 in6.4 mm
01:50 PM 46.3°F7.9°C 44.1°F6.7°C 92% 14.6 mph NW23.5 kmh NW 22.3 mph35.9 kmh 29.36 in994.2 mb 0.00 in0.0 mm 0.00 in0.0 mm 0.25 in6.4 mm
01:55 PM 46.3°F7.9°C 44.1°F6.7°C 92% 16.5 mph WNW26.6 kmh WNW 22.3 mph35.9 kmh 29.36 in994.2 mb 0.00 in0.0 mm 0.00 in0.0 mm 0.25 in6.4 mm
02:00 PM 46.1°F7.8°C 43.9°F6.6°C 92% 16.7 mph WNW26.9 kmh WNW 22.3 mph35.9 kmh 29.36 in994.2 mb 0.00 in0.0 mm 0.00 in0.0 mm 0.25 in6.4 mm
02:05 PM 45.8°F7.7°C 43.3°F6.3°C 91% 17.3 mph WNW27.8 kmh WNW 25.3 mph40.7 kmh 29.36 in994.2 mb 0.00 in0.0 mm 0.00 in0.0 mm 0.25 in6.4 mm
02:10 PM 45.4°F7.4°C 42.6°F5.9°C 90% 15.8 mph NW25.4 kmh NW 25.3 mph40.7 kmh 29.36 in994.2 mb 0.00 in0.0 mm 0.00 in0.0 mm 0.25 in6.4 mm
02:15 PM 45.0°F7.2°C 42.0°F5.6°C 89% 14.2 mph NW22.9 kmh NW 20.5 mph33.0 kmh 29.39 in995.3 mb 0.00 in0.0 mm 0.00 in0.0 mm 0.25 in6.4 mm
02:20 PM 44.9°F7.2°C 41.5°F5.3°C 88% 12.8 mph WNW20.6 kmh WNW 20.5 mph33.0 kmh 29.39 in995.3 mb 0.00 in0.0 mm 0.00 in0.0 mm 0.25 in6.4 mm
02:25 PM 44.9°F7.2°C 41.5°F5.3°C 88% 12.4 mph W20.0 kmh W 23.5 mph37.8 kmh 29.39 in995.3 mb 0.00 in0.0 mm 0.00 in0.0 mm 0.25 in6.4 mm
02:30 PM 44.5°F6.9°C 40.9°F4.9°C 87% 13.3 mph W21.4 kmh W 23.5 mph37.8 kmh 29.39 in995.3 mb 0.00 in0.0 mm 0.00 in0.0 mm 0.25 in6.4 mm
02:35 PM 44.3°F6.8°C 40.7°F4.8°C 87% 10.9 mph WNW17.5 kmh WNW 16.7 mph26.9 kmh 29.39 in995.3 mb 0.00 in0.0 mm 0.00 in0.0 mm 0.25 in6.4 mm
02:40 PM 44.2°F6.8°C 40.5°F4.7°C 87% 11.5 mph NW18.5 kmh NW 17.6 mph28.3 kmh 29.39 in995.3 mb 0.00 in0.0 mm 0.00 in0.0 mm 0.25 in6.4 mm
02:45 PM 44.2°F6.8°C 40.5°F4.7°C 87% 12.1 mph WNW19.5 kmh WNW 17.6 mph28.3 kmh 29.39 in995.3 mb 0.00 in0.0 mm 0.00 in0.0 mm 0.25 in6.4 mm
02:50 PM 44.0°F6.7°C 40.1°F4.5°C 86% 11.1 mph WNW17.9 kmh WNW 16.7 mph26.9 kmh 29.39 in995.3 mb 0.00 in0.0 mm 0.00 in0.0 mm 0.25 in6.4 mm
02:55 PM 44.0°F6.7°C 40.1°F4.5°C 86% 11.4 mph WNW18.3 kmh WNW 20.2 mph32.5 kmh 29.39 in995.3 mb 0.00 in0.0 mm 0.00 in0.0 mm 0.25 in6.4 mm
03:00 PM 43.8°F6.6°C 39.9°F4.4°C 86% 10.3 mph W16.6 kmh W 20.2 mph32.5 kmh 29.39 in995.3 mb 0.00 in0.0 mm 0.00 in0.0 mm 0.25 in6.4 mm
03:05 PM 43.6°F6.4°C 39.7°F4.3°C 86% 9.1 mph WNW14.6 kmh WNW 13.7 mph22.0 kmh 29.39 in995.3 mb 0.00 in0.0 mm 0.00 in0.0 mm 0.25 in6.4 mm
03:10 PM 43.6°F6.4°C 39.4°F4.1°C 85% 9.9 mph WNW15.9 kmh WNW 13.7 mph22.0 kmh 29.39 in995.3 mb 0.00 in0.0 mm 0.00 in0.0 mm 0.25 in6.4 mm
03:15 PM 43.4°F6.3°C 39.2°F4.0°C 85% 9.7 mph WNW15.6 kmh WNW 13.7 mph22.0 kmh 29.39 in995.3 mb 0.00 in0.0 mm 0.00 in0.0 mm 0.25 in6.4 mm
03:20 PM 43.3°F6.3°C 39.0°F3.9°C 85% 9.2 mph W14.8 kmh W 13.7 mph22.0 kmh 29.39 in995.3 mb 0.00 in0.0 mm 0.00 in0.0 mm 0.25 in6.4 mm
03:25 PM 43.1°F6.2°C 38.9°F3.8°C 85% 8.4 mph WSW13.5 kmh WSW 12.2 mph19.6 kmh 29.39 in995.3 mb 0.00 in0.0 mm 0.00 in0.0 mm 0.25 in6.4 mm
03:30 PM 43.1°F6.2°C 38.9°F3.8°C 85% 9.6 mph WSW15.4 kmh WSW 14.6 mph23.5 kmh 29.39 in995.3 mb 0.00 in0.0 mm 0.00 in0.0 mm 0.25 in6.4 mm
03:35 PM 42.9°F6.1°C 38.4°F3.6°C 84% 11.5 mph W18.5 kmh W 14.6 mph23.5 kmh 29.39 in995.3 mb 0.00 in0.0 mm 0.00 in0.0 mm 0.25 in6.4 mm
03:40 PM 42.9°F6.1°C 38.4°F3.6°C 84% 11.8 mph W19.0 kmh W 18.7 mph30.1 kmh 29.39 in995.3 mb 0.00 in0.0 mm 0.00 in0.0 mm 0.25 in6.4 mm
03:45 PM 42.9°F6.1°C 38.1°F3.4°C 83% 12.5 mph WSW20.1 kmh WSW 18.7 mph30.1 kmh 29.39 in995.3 mb 0.00 in0.0 mm 0.00 in0.0 mm 0.25 in6.4 mm
03:50 PM 42.7°F5.9°C 37.9°F3.3°C 83% 12.7 mph W20.4 kmh W 18.7 mph30.1 kmh 29.39 in995.3 mb 0.00 in0.0 mm 0.00 in0.0 mm 0.25 in6.4 mm
03:55 PM 42.7°F5.9°C 37.9°F3.3°C 83% 9.9 mph W15.9 kmh W 14.0 mph22.5 kmh 29.39 in995.3 mb 0.00 in0.0 mm 0.00 in0.0 mm 0.25 in6.4 mm
04:00 PM 42.5°F5.8°C 37.7°F3.2°C 83% 10.0 mph W16.1 kmh W 14.6 mph23.5 kmh 29.39 in995.3 mb 0.00 in0.0 mm 0.00 in0.0 mm 0.25 in6.4 mm
04:05 PM 42.5°F5.8°C 37.4°F3.0°C 82% 11.9 mph WNW19.2 kmh WNW 17.0 mph27.4 kmh 29.39 in995.3 mb 0.00 in0.0 mm 0.00 in0.0 mm 0.25 in6.4 mm
04:10 PM 42.5°F5.8°C 37.4°F3.0°C 82% 11.7 mph WNW18.8 kmh WNW 17.0 mph27.4 kmh 29.39 in995.3 mb 0.00 in0.0 mm 0.00 in0.0 mm 0.25 in6.4 mm
04:15 PM 42.5°F5.8°C 37.4°F3.0°C 82% 10.6 mph WNW17.1 kmh WNW 14.0 mph22.5 kmh 29.39 in995.3 mb 0.00 in0.0 mm 0.00 in0.0 mm 0.25 in6.4 mm
04:20 PM 42.3°F5.7°C 36.9°F2.7°C 81% 10.2 mph NW16.4 kmh NW 14.0 mph22.5 kmh 29.39 in995.3 mb 0.00 in0.0 mm 0.00 in0.0 mm 0.25 in6.4 mm
04:25 PM 42.3°F5.7°C 36.9°F2.7°C 81% 11.9 mph WNW19.2 kmh WNW 17.3 mph27.8 kmh 29.39 in995.3 mb 0.00 in0.0 mm 0.00 in0.0 mm 0.25 in6.4 mm
04:30 PM 42.3°F5.7°C 36.9°F2.7°C 81% 12.0 mph W19.3 kmh W 17.3 mph27.8 kmh 29.39 in995.3 mb 0.00 in0.0 mm 0.00 in0.0 mm 0.25 in6.4 mm
04:35 PM 42.3°F5.7°C 36.6°F2.6°C 80% 11.7 mph W18.8 kmh W 20.5 mph33.0 kmh 29.39 in995.3 mb 0.00 in0.0 mm 0.00 in0.0 mm 0.25 in6.4 mm
04:40 PM 42.3°F5.7°C 36.6°F2.6°C 80% 12.3 mph W19.8 kmh W 20.5 mph33.0 kmh 29.39 in995.3 mb 0.00 in0.0 mm 0.00 in0.0 mm 0.25 in6.4 mm
04:45 PM 42.2°F5.7°C 36.1°F2.3°C 79% 11.3 mph WNW18.2 kmh WNW 14.9 mph24.0 kmh 29.36 in994.2 mb 0.00 in0.0 mm 0.00 in0.0 mm 0.25 in6.4 mm
04:50 PM 42.2°F5.7°C 36.1°F2.3°C 79% 9.3 mph WNW15.0 kmh WNW 14.9 mph24.0 kmh 29.36 in994.2 mb 0.00 in0.0 mm 0.00 in0.0 mm 0.25 in6.4 mm
04:55 PM 42.0°F5.6°C 35.9°F2.2°C 79% 7.6 mph WNW12.2 kmh WNW 10.7 mph17.2 kmh 29.36 in994.2 mb 0.00 in0.0 mm 0.00 in0.0 mm 0.25 in6.4 mm
05:00 PM 41.8°F5.4°C 35.8°F2.1°C 79% 8.6 mph W13.8 kmh W 11.6 mph18.7 kmh 29.36 in994.2 mb 0.00 in0.0 mm 0.00 in0.0 mm 0.25 in6.4 mm
05:05 PM 41.8°F5.4°C 35.8°F2.1°C 79% 7.9 mph W12.7 kmh W 11.6 mph18.7 kmh 29.36 in994.2 mb 0.00 in0.0 mm 0.00 in0.0 mm 0.25 in6.4 mm
05:10 PM 41.8°F5.4°C 35.5°F1.9°C 78% 6.7 mph WNW10.8 kmh WNW 9.8 mph15.8 kmh 29.36 in994.2 mb 0.00 in0.0 mm 0.00 in0.0 mm 0.25 in6.4 mm
05:15 PM 42.0°F5.6°C 35.9°F2.2°C 79% 6.2 mph W10.0 kmh W 9.8 mph15.8 kmh 29.36 in994.2 mb 0.00 in0.0 mm 0.00 in0.0 mm 0.25 in6.4 mm
05:20 PM 42.0°F5.6°C 36.3°F2.4°C 80% 6.1 mph WNW9.8 kmh WNW 10.1 mph16.3 kmh 29.36 in994.2 mb 0.00 in0.0 mm 0.00 in0.0 mm 0.25 in6.4 mm
05:25 PM 41.8°F5.4°C 36.1°F2.3°C 80% 8.0 mph WNW12.9 kmh WNW 14.3 mph23.0 kmh 29.36 in994.2 mb 0.00 in0.0 mm 0.00 in0.0 mm 0.25 in6.4 mm
05:30 PM 41.8°F5.4°C 36.1°F2.3°C 80% 8.2 mph W13.2 kmh W 14.3 mph23.0 kmh 29.36 in994.2 mb 0.00 in0.0 mm 0.00 in0.0 mm 0.25 in6.4 mm
05:35 PM 41.6°F5.3°C 35.9°F2.2°C 80% 6.7 mph W10.8 kmh W 8.3 mph13.4 kmh 29.36 in994.2 mb 0.00 in0.0 mm 0.00 in0.0 mm 0.25 in6.4 mm
05:40 PM 41.6°F5.3°C 35.9°F2.2°C 80% 7.0 mph W11.3 kmh W 8.6 mph13.8 kmh 29.36 in994.2 mb 0.00 in0.0 mm 0.00 in0.0 mm 0.25 in6.4 mm
05:45 PM 41.6°F5.3°C 35.9°F2.2°C 80% 6.3 mph W10.1 kmh W 8.6 mph13.8 kmh 29.36 in994.2 mb 0.00 in0.0 mm 0.00 in0.0 mm 0.25 in6.4 mm
05:50 PM 41.6°F5.3°C 35.9°F2.2°C 80% 4.5 mph WSW7.2 kmh WSW 5.7 mph9.2 kmh 29.36 in994.2 mb 0.00 in0.0 mm 0.00 in0.0 mm 0.25 in6.4 mm
05:55 PM 41.6°F5.3°C 35.9°F2.2°C 80% 3.7 mph WSW6.0 kmh WSW 4.8 mph7.7 kmh 29.36 in994.2 mb 0.00 in0.0 mm 0.00 in0.0 mm 0.25 in6.4 mm
06:00 PM 41.5°F5.3°C 36.1°F2.3°C 81% 3.0 mph S4.8 kmh S 4.8 mph7.7 kmh 29.33 in993.2 mb 0.00 in0.0 mm 0.00 in0.0 mm 0.25 in6.4 mm
06:05 PM 41.5°F5.3°C 36.1°F2.3°C 81% 2.6 mph NE4.2 kmh NE 4.8 mph7.7 kmh 29.33 in993.2 mb 0.00 in0.0 mm 0.00 in0.0 mm 0.25 in6.4 mm
06:10 PM 41.5°F5.3°C 36.4°F2.4°C 82% 7.1 mph WSW11.4 kmh WSW 30.0 mph48.3 kmh 29.33 in993.2 mb 0.00 in0.0 mm 0.00 in0.0 mm 0.25 in6.4 mm
06:15 PM 41.6°F5.3°C 36.2°F2.3°C 81% 16.4 mph WSW26.4 kmh WSW 30.0 mph48.3 kmh 29.36 in994.2 mb 0.00 in0.0 mm 0.00 in0.0 mm 0.25 in6.4 mm
06:20 PM 41.1°F5.1°C 36.0°F2.2°C 82% 20.4 mph W32.8 kmh W 29.8 mph48.0 kmh 29.36 in994.2 mb 0.04 in1.0 mm 0.48 in12.2 mm 0.29 in7.4 mm
06:25 PM 40.4°F4.7°C 35.6°F2.0°C 83% 19.3 mph W31.1 kmh W 30.6 mph49.2 kmh 29.36 in994.2 mb 0.04 in1.0 mm 0.00 in0.0 mm 0.29 in7.4 mm
06:30 PM 39.7°F4.3°C 34.9°F1.6°C 83% 17.8 mph W28.6 kmh W 30.6 mph49.2 kmh 29.36 in994.2 mb 0.08 in2.0 mm 0.48 in12.2 mm 0.33 in8.4 mm
06:35 PM 39.5°F4.2°C 35.0°F1.7°C 84% 14.6 mph W23.5 kmh W 22.3 mph35.9 kmh 29.36 in994.2 mb 0.08 in2.0 mm 0.00 in0.0 mm 0.33 in8.4 mm
06:40 PM 39.3°F4.1°C 34.9°F1.6°C 84% 12.2 mph WSW19.6 kmh WSW 20.2 mph32.5 kmh 29.36 in994.2 mb 0.08 in2.0 mm 0.00 in0.0 mm 0.33 in8.4 mm
06:45 PM 39.1°F3.9°C 35.0°F1.7°C 85% 8.2 mph WSW13.2 kmh WSW 11.6 mph18.7 kmh 29.33 in993.2 mb 0.08 in2.0 mm 0.00 in0.0 mm 0.33 in8.4 mm
06:50 PM 39.1°F3.9°C 35.0°F1.7°C 85% 6.5 mph WSW10.5 kmh WSW 10.1 mph16.3 kmh 29.33 in993.2 mb 0.08 in2.0 mm 0.00 in0.0 mm 0.33 in8.4 mm
06:55 PM 38.9°F3.8°C 34.8°F1.6°C 85% 4.8 mph SW7.7 kmh SW 7.4 mph11.9 kmh 29.33 in993.2 mb 0.08 in2.0 mm 0.00 in0.0 mm 0.33 in8.4 mm
07:00 PM 38.9°F3.8°C 34.8°F1.6°C 85% 4.4 mph SW7.1 kmh SW 6.5 mph10.5 kmh 29.30 in992.2 mb 0.08 in2.0 mm 0.00 in0.0 mm 0.33 in8.4 mm
07:05 PM 38.9°F3.8°C 35.1°F1.7°C 86% 5.3 mph WSW8.5 kmh WSW 10.1 mph16.3 kmh 29.30 in992.2 mb 0.12 in3.0 mm 0.48 in12.2 mm 0.37 in9.4 mm
07:10 PM 38.9°F3.8°C 35.1°F1.7°C 86% 7.7 mph W12.4 kmh W 14.0 mph22.5 kmh 29.30 in992.2 mb 0.12 in3.0 mm 0.00 in0.0 mm 0.37 in9.4 mm
07:15 PM 39.1°F3.9°C 35.3°F1.8°C 86% 10.8 mph W17.4 kmh W 17.0 mph27.4 kmh 29.33 in993.2 mb 0.08 in2.0 mm 0.00 in0.0 mm 0.37 in9.4 mm
07:20 PM 39.5°F4.2°C 35.6°F2.0°C 86% 19.1 mph W30.7 kmh W 30.9 mph49.7 kmh 29.33 in993.2 mb 0.08 in2.0 mm 0.00 in0.0 mm 0.37 in9.4 mm
07:25 PM 39.8°F4.3°C 36.0°F2.2°C 86% 18.3 mph WNW29.5 kmh WNW 30.9 mph49.7 kmh 29.33 in993.2 mb 0.04 in1.0 mm 0.00 in0.0 mm 0.37 in9.4 mm
07:30 PM 40.0°F4.4°C 35.9°F2.2°C 85% 16.3 mph WNW26.2 kmh WNW 25.3 mph40.7 kmh 29.33 in993.2 mb 0.04 in1.0 mm 0.00 in0.0 mm 0.37 in9.4 mm
07:35 PM 40.0°F4.4°C 35.9°F2.2°C 85% 15.7 mph NW25.3 kmh NW 25.3 mph40.7 kmh 29.33 in993.2 mb 0.04 in1.0 mm 0.00 in0.0 mm 0.37 in9.4 mm
07:40 PM 40.0°F4.4°C 35.9°F2.2°C 85% 13.0 mph NW20.9 kmh NW 23.5 mph37.8 kmh 29.33 in993.2 mb 0.04 in1.0 mm 0.00 in0.0 mm 0.37 in9.4 mm
07:45 PM 40.4°F4.7°C 36.2°F2.3°C 85% 12.2 mph W19.6 kmh W 19.0 mph30.6 kmh 29.33 in993.2 mb 0.04 in1.0 mm 0.00 in0.0 mm 0.37 in9.4 mm
07:50 PM 40.4°F4.7°C 36.2°F2.3°C 85% 11.5 mph WNW18.5 kmh WNW 19.0 mph30.6 kmh 29.33 in993.2 mb 0.04 in1.0 mm 0.00 in0.0 mm 0.37 in9.4 mm
07:55 PM 40.2°F4.6°C 36.0°F2.2°C 85% 15.0 mph NW24.1 kmh NW 26.2 mph42.2 kmh 29.33 in993.2 mb 0.04 in1.0 mm 0.00 in0.0 mm 0.37 in9.4 mm
08:00 PM 40.2°F4.6°C 35.7°F2.1°C 84% 21.1 mph NW34.0 kmh NW 36.6 mph58.9 kmh 29.33 in993.2 mb 0.04 in1.0 mm 0.00 in0.0 mm 0.37 in9.4 mm
08:05 PM 40.0°F4.4°C 35.6°F2.0°C 84% 20.2 mph NW32.5 kmh NW 36.6 mph58.9 kmh 29.33 in993.2 mb 0.00 in0.0 mm 0.00 in0.0 mm 0.37 in9.4 mm
08:10 PM 40.0°F4.4°C 35.3°F1.8°C 83% 16.5 mph WNW26.6 kmh WNW 23.5 mph37.8 kmh 29.33 in993.2 mb 0.00 in0.0 mm 0.00 in0.0 mm 0.37 in9.4 mm
08:15 PM 40.2°F4.6°C 35.1°F1.7°C 82% 17.6 mph WNW28.3 kmh WNW 23.5 mph37.8 kmh 29.36 in994.2 mb 0.00 in0.0 mm 0.00 in0.0 mm 0.37 in9.4 mm
08:20 PM 40.0°F4.4°C 34.6°F1.4°C 81% 23.2 mph WNW37.3 kmh WNW 32.7 mph52.6 kmh 29.36 in994.2 mb 0.00 in0.0 mm 0.00 in0.0 mm 0.37 in9.4 mm
08:25 PM 40.0°F4.4°C 34.6°F1.4°C 81% 23.2 mph WNW37.3 kmh WNW 32.7 mph52.6 kmh 29.36 in994.2 mb 0.00 in0.0 mm 0.00 in0.0 mm 0.37 in9.4 mm
08:30 PM 40.0°F4.4°C 34.3°F1.3°C 80% 22.3 mph W35.9 kmh W 32.7 mph52.6 kmh 29.36 in994.2 mb 0.00 in0.0 mm 0.00 in0.0 mm 0.37 in9.4 mm
08:35 PM 39.8°F4.3°C 34.2°F1.2°C 80% 19.4 mph W31.2 kmh W 26.5 mph42.6 kmh 29.36 in994.2 mb 0.00 in0.0 mm 0.00 in0.0 mm 0.37 in9.4 mm
08:40 PM 39.8°F4.3°C 33.8°F1.0°C 79% 17.1 mph W27.5 kmh W 25.3 mph40.7 kmh 29.36 in994.2 mb 0.00 in0.0 mm 0.00 in0.0 mm 0.37 in9.4 mm
08:45 PM 39.8°F4.3°C 33.8°F1.0°C 79% 14.5 mph W23.3 kmh W 18.4 mph29.6 kmh 29.36 in994.2 mb 0.00 in0.0 mm 0.00 in0.0 mm 0.37 in9.4 mm
08:50 PM 39.7°F4.3°C 33.7°F0.9°C 79% 14.6 mph W23.5 kmh W 22.3 mph35.9 kmh 29.36 in994.2 mb 0.00 in0.0 mm 0.00 in0.0 mm 0.37 in9.4 mm
08:55 PM 39.7°F4.3°C 33.7°F0.9°C 79% 17.6 mph W28.3 kmh W 22.3 mph35.9 kmh 29.36 in994.2 mb 0.00 in0.0 mm 0.00 in0.0 mm 0.37 in9.4 mm
09:00 PM 39.5°F4.2°C 33.2°F0.7°C 78% 17.5 mph WNW28.2 kmh WNW 20.8 mph33.5 kmh 29.36 in994.2 mb 0.00 in0.0 mm 0.00 in0.0 mm 0.37 in9.4 mm
09:05 PM 39.5°F4.2°C 33.2°F0.7°C 78% 14.9 mph WNW24.0 kmh WNW 20.8 mph33.5 kmh 29.36 in994.2 mb 0.00 in0.0 mm 0.00 in0.0 mm 0.37 in9.4 mm
09:10 PM 39.3°F4.1°C 33.0°F0.6°C 78% 17.6 mph WNW28.3 kmh WNW 27.1 mph43.6 kmh 29.36 in994.2 mb 0.00 in0.0 mm 0.00 in0.0 mm 0.37 in9.4 mm
09:15 PM 39.3°F4.1°C 33.0°F0.6°C 78% 19.9 mph NW32.0 kmh NW 27.1 mph43.6 kmh 29.39 in995.3 mb 0.00 in0.0 mm 0.00 in0.0 mm 0.37 in9.4 mm
09:20 PM 39.3°F4.1°C 33.0°F0.6°C 78% 17.1 mph NW27.5 kmh NW 26.8 mph43.1 kmh 29.39 in995.3 mb 0.00 in0.0 mm 0.00 in0.0 mm 0.37 in9.4 mm
09:25 PM 39.3°F4.1°C 33.0°F0.6°C 78% 16.7 mph WNW26.9 kmh WNW 23.5 mph37.8 kmh 29.39 in995.3 mb 0.00 in0.0 mm 0.00 in0.0 mm 0.37 in9.4 mm
09:30 PM 39.3°F4.1°C 32.7°F0.4°C 77% 19.4 mph WNW31.2 kmh WNW 26.2 mph42.2 kmh 29.39 in995.3 mb 0.00 in0.0 mm 0.00 in0.0 mm 0.37 in9.4 mm
09:35 PM 39.3°F4.1°C 32.7°F0.4°C 77% 18.0 mph WNW29.0 kmh WNW 26.2 mph42.2 kmh 29.39 in995.3 mb 0.00 in0.0 mm 0.00 in0.0 mm 0.37 in9.4 mm
09:40 PM 39.3°F4.1°C 32.7°F0.4°C 77% 15.1 mph WNW24.3 kmh WNW 25.6 mph41.2 kmh 29.39 in995.3 mb 0.00 in0.0 mm 0.00 in0.0 mm 0.37 in9.4 mm
09:45 PM 39.3°F4.1°C 32.7°F0.4°C 77% 16.4 mph W26.4 kmh W 25.6 mph41.2 kmh 29.39 in995.3 mb 0.00 in0.0 mm 0.00 in0.0 mm 0.37 in9.4 mm
09:50 PM 39.3°F4.1°C 32.7°F0.4°C 77% 18.4 mph W29.6 kmh W 32.1 mph51.7 kmh 29.39 in995.3 mb 0.00 in0.0 mm 0.00 in0.0 mm 0.37 in9.4 mm
09:55 PM 39.3°F4.1°C 32.4°F0.2°C 76% 18.4 mph WNW29.6 kmh WNW 32.1 mph51.7 kmh 29.39 in995.3 mb 0.00 in0.0 mm 0.00 in0.0 mm 0.37 in9.4 mm
10:00 PM 39.3°F4.1°C 32.4°F0.2°C 76% 16.9 mph WNW27.2 kmh WNW 22.0 mph35.4 kmh 29.39 in995.3 mb 0.00 in0.0 mm 0.00 in0.0 mm 0.37 in9.4 mm
10:05 PM 39.3°F4.1°C 32.4°F0.2°C 76% 18.2 mph WNW29.3 kmh WNW 25.9 mph41.7 kmh 29.39 in995.3 mb 0.00 in0.0 mm 0.00 in0.0 mm 0.37 in9.4 mm
10:10 PM 39.3°F4.1°C 32.4°F0.2°C 76% 16.9 mph WNW27.2 kmh WNW 25.9 mph41.7 kmh 29.39 in995.3 mb 0.00 in0.0 mm 0.00 in0.0 mm 0.37 in9.4 mm
10:15 PM 39.3°F4.1°C 32.4°F0.2°C 76% 15.8 mph WNW25.4 kmh WNW 31.8 mph51.2 kmh 29.41 in995.9 mb 0.00 in0.0 mm 0.00 in0.0 mm 0.37 in9.4 mm
10:20 PM 39.3°F4.1°C 32.4°F0.2°C 76% 14.7 mph WNW23.7 kmh WNW 31.8 mph51.2 kmh 29.41 in995.9 mb 0.00 in0.0 mm 0.00 in0.0 mm 0.37 in9.4 mm
10:25 PM 39.3°F4.1°C 32.4°F0.2°C 76% 14.4 mph WNW23.2 kmh WNW 30.3 mph48.8 kmh 29.41 in995.9 mb 0.00 in0.0 mm 0.00 in0.0 mm 0.37 in9.4 mm
10:30 PM 39.3°F4.1°C 32.4°F0.2°C 76% 14.9 mph NW24.0 kmh NW 30.3 mph48.8 kmh 29.41 in995.9 mb 0.00 in0.0 mm 0.00 in0.0 mm 0.37 in9.4 mm
10:35 PM 39.3°F4.1°C 32.4°F0.2°C 76% 15.2 mph NW24.5 kmh NW 23.2 mph37.3 kmh 29.41 in995.9 mb 0.00 in0.0 mm 0.00 in0.0 mm 0.37 in9.4 mm
10:40 PM 39.3°F4.1°C 32.4°F0.2°C 76% 16.0 mph WNW25.7 kmh WNW 20.5 mph33.0 kmh 29.41 in995.9 mb 0.00 in0.0 mm 0.00 in0.0 mm 0.37 in9.4 mm
10:45 PM 39.5°F4.2°C 32.5°F0.3°C 76% 15.2 mph WNW24.5 kmh WNW 22.3 mph35.9 kmh 29.41 in995.9 mb 0.00 in0.0 mm 0.00 in0.0 mm 0.37 in9.4 mm
10:50 PM 39.7°F4.3°C 32.7°F0.4°C 76% 15.4 mph NW24.8 kmh NW 22.3 mph35.9 kmh 29.41 in995.9 mb 0.00 in0.0 mm 0.00 in0.0 mm 0.37 in9.4 mm
10:55 PM 39.8°F4.3°C 32.9°F0.5°C 76% 13.9 mph NW22.4 kmh NW 20.2 mph32.5 kmh 29.41 in995.9 mb 0.00 in0.0 mm 0.00 in0.0 mm 0.37 in9.4 mm
11:00 PM 39.8°F4.3°C 32.9°F0.5°C 76% 14.1 mph WNW22.7 kmh WNW 19.6 mph31.5 kmh 29.41 in995.9 mb 0.00 in0.0 mm 0.00 in0.0 mm 0.37 in9.4 mm
11:05 PM 40.0°F4.4°C 33.1°F0.6°C 76% 13.2 mph W21.2 kmh W 17.6 mph28.3 kmh 29.41 in995.9 mb 0.00 in0.0 mm 0.00 in0.0 mm 0.37 in9.4 mm
11:10 PM 40.0°F4.4°C 33.1°F0.6°C 76% 12.8 mph W20.6 kmh W 24.7 mph39.8 kmh 29.41 in995.9 mb 0.00 in0.0 mm 0.00 in0.0 mm 0.37 in9.4 mm
11:15 PM 40.2°F4.6°C 32.9°F0.5°C 75% 15.0 mph W24.1 kmh W 24.7 mph39.8 kmh 29.41 in995.9 mb 0.00 in0.0 mm 0.00 in0.0 mm 0.37 in9.4 mm
11:20 PM 40.5°F4.7°C 33.2°F0.7°C 75% 16.5 mph WNW26.6 kmh WNW 20.5 mph33.0 kmh 29.41 in995.9 mb 0.00 in0.0 mm 0.00 in0.0 mm 0.37 in9.4 mm
11:25 PM 40.5°F4.7°C 33.2°F0.7°C 75% 17.0 mph WNW27.4 kmh WNW 27.1 mph43.6 kmh 29.41 in995.9 mb 0.00 in0.0 mm 0.00 in0.0 mm 0.37 in9.4 mm
11:30 PM 40.7°F4.8°C 33.4°F0.8°C 75% 15.9 mph WNW25.6 kmh WNW 36.6 mph58.9 kmh 29.41 in995.9 mb 0.00 in0.0 mm 0.00 in0.0 mm 0.37 in9.4 mm
11:35 PM 40.7°F4.8°C 33.4°F0.8°C 75% 15.3 mph W24.6 kmh W 36.6 mph58.9 kmh 29.41 in995.9 mb 0.00 in0.0 mm 0.00 in0.0 mm 0.37 in9.4 mm
11:40 PM 40.9°F4.9°C 33.6°F0.9°C 75% 15.2 mph W24.5 kmh W 23.2 mph37.3 kmh 29.41 in995.9 mb 0.00 in0.0 mm 0.00 in0.0 mm 0.37 in9.4 mm
11:45 PM 40.9°F4.9°C 33.6°F0.9°C 75% 14.2 mph W22.9 kmh W 23.0 mph37.0 kmh 29.39 in995.3 mb 0.00 in0.0 mm 0.00 in0.0 mm 0.37 in9.4 mm
11:50 PM 40.9°F4.9°C 33.6°F0.9°C 75% 14.8 mph WNW23.8 kmh WNW 19.3 mph31.1 kmh 29.39 in995.3 mb 0.00 in0.0 mm 0.00 in0.0 mm 0.37 in9.4 mm
11:55 PM 41.1°F5.1°C 33.8°F1.0°C 75% 15.5 mph NW24.9 kmh NW 19.3 mph31.1 kmh 29.39 in995.3 mb 0.00 in0.0 mm 0.00 in0.0 mm 0.37 in9.4 mm